sensor_id;sensor_type;location;lat;lon;timestamp;P1;durP1;ratioP1;P2;durP2;ratioP2
2049;SDS011;8478;49.208;8.806;2022-12-24T00:01:57;3.43;;;2.60;;
2049;SDS011;8478;49.208;8.806;2022-12-24T00:04:22;3.30;;;2.50;;
2049;SDS011;8478;49.208;8.806;2022-12-24T00:06:48;4.10;;;2.97;;
2049;SDS011;8478;49.208;8.806;2022-12-24T00:09:14;4.10;;;2.50;;
2049;SDS011;8478;49.208;8.806;2022-12-24T00:11:39;3.67;;;2.73;;
2049;SDS011;8478;49.208;8.806;2022-12-24T00:14:05;5.20;;;2.97;;
2049;SDS011;8478;49.208;8.806;2022-12-24T00:16:31;6.70;;;3.13;;
2049;SDS011;8478;49.208;8.806;2022-12-24T00:18:56;3.90;;;2.47;;
2049;SDS011;8478;49.208;8.806;2022-12-24T00:21:22;7.50;;;3.57;;
2049;SDS011;8478;49.208;8.806;2022-12-24T00:23:47;3.83;;;2.90;;
2049;SDS011;8478;49.208;8.806;2022-12-24T00:26:13;4.53;;;2.93;;
2049;SDS011;8478;49.208;8.806;2022-12-24T00:28:39;4.93;;;3.00;;
2049;SDS011;8478;49.208;8.806;2022-12-24T00:31:06;4.77;;;2.83;;
2049;SDS011;8478;49.208;8.806;2022-12-24T00:33:41;7.70;;;3.47;;
2049;SDS011;8478;49.208;8.806;2022-12-24T00:36:09;5.30;;;3.33;;
2049;SDS011;8478;49.208;8.806;2022-12-24T00:38:34;7.80;;;3.80;;
2049;SDS011;8478;49.208;8.806;2022-12-24T00:41:02;3.30;;;2.43;;
2049;SDS011;8478;49.208;8.806;2022-12-24T00:43:29;4.53;;;3.03;;
2049;SDS011;8478;49.208;8.806;2022-12-24T00:45:55;4.10;;;3.63;;
2049;SDS011;8478;49.208;8.806;2022-12-24T00:48:21;4.17;;;2.80;;
2049;SDS011;8478;49.208;8.806;2022-12-24T00:50:48;4.83;;;3.20;;
2049;SDS011;8478;49.208;8.806;2022-12-24T00:53:15;4.63;;;2.80;;
2049;SDS011;8478;49.208;8.806;2022-12-24T00:55:41;2.77;;;2.27;;
2049;SDS011;8478;49.208;8.806;2022-12-24T00:58:07;7.00;;;3.87;;
2049;SDS011;8478;49.208;8.806;2022-12-24T01:00:32;4.07;;;3.10;;
2049;SDS011;8478;49.208;8.806;2022-12-24T01:02:58;6.80;;;3.73;;
2049;SDS011;8478;49.208;8.806;2022-12-24T01:05:24;5.13;;;2.87;;
2049;SDS011;8478;49.208;8.806;2022-12-24T01:07:49;5.07;;;3.13;;
2049;SDS011;8478;49.208;8.806;2022-12-24T01:10:16;5.23;;;3.03;;
2049;SDS011;8478;49.208;8.806;2022-12-24T01:12:43;4.80;;;2.70;;
2049;SDS011;8478;49.208;8.806;2022-12-24T01:15:10;5.60;;;3.07;;
2049;SDS011;8478;49.208;8.806;2022-12-24T01:17:37;6.20;;;2.90;;
2049;SDS011;8478;49.208;8.806;2022-12-24T01:20:04;4.80;;;2.90;;
2049;SDS011;8478;49.208;8.806;2022-12-24T01:22:32;3.87;;;2.80;;
2049;SDS011;8478;49.208;8.806;2022-12-24T01:24:57;5.43;;;3.50;;
2049;SDS011;8478;49.208;8.806;2022-12-24T01:27:23;4.80;;;2.73;;
2049;SDS011;8478;49.208;8.806;2022-12-24T01:29:49;5.57;;;3.30;;
2049;SDS011;8478;49.208;8.806;2022-12-24T01:32:14;6.27;;;2.80;;
2049;SDS011;8478;49.208;8.806;2022-12-24T01:34:40;3.93;;;3.10;;
2049;SDS011;8478;49.208;8.806;2022-12-24T01:37:06;9.73;;;3.37;;
2049;SDS011;8478;49.208;8.806;2022-12-24T01:39:32;6.10;;;2.73;;
2049;SDS011;8478;49.208;8.806;2022-12-24T01:41:57;5.73;;;3.20;;
2049;SDS011;8478;49.208;8.806;2022-12-24T01:44:43;5.83;;;3.50;;
2049;SDS011;8478;49.208;8.806;2022-12-24T01:47:24;5.93;;;2.80;;
2049;SDS011;8478;49.208;8.806;2022-12-24T01:49:55;7.23;;;3.03;;
2049;SDS011;8478;49.208;8.806;2022-12-24T01:52:25;6.87;;;3.60;;
2049;SDS011;8478;49.208;8.806;2022-12-24T01:55:12;5.53;;;2.90;;
2049;SDS011;8478;49.208;8.806;2022-12-24T01:57:53;5.00;;;3.07;;
2049;SDS011;8478;49.208;8.806;2022-12-24T02:00:22;6.37;;;3.30;;
2049;SDS011;8478;49.208;8.806;2022-12-24T02:02:48;7.10;;;2.83;;
2049;SDS011;8478;49.208;8.806;2022-12-24T02:05:17;4.30;;;3.07;;
2049;SDS011;8478;49.208;8.806;2022-12-24T02:07:47;4.60;;;2.83;;
2049;SDS011;8478;49.208;8.806;2022-12-24T02:10:13;5.10;;;3.17;;
2049;SDS011;8478;49.208;8.806;2022-12-24T02:12:40;5.23;;;2.77;;
2049;SDS011;8478;49.208;8.806;2022-12-24T02:15:08;5.87;;;3.43;;
2049;SDS011;8478;49.208;8.806;2022-12-24T02:17:50;7.37;;;3.63;;
2049;SDS011;8478;49.208;8.806;2022-12-24T02:31:22;9.53;;;3.63;;
2049;SDS011;8478;49.208;8.806;2022-12-24T02:34:04;4.73;;;3.40;;
2049;SDS011;8478;49.208;8.806;2022-12-24T02:36:39;7.10;;;3.23;;
2049;SDS011;8478;49.208;8.806;2022-12-24T02:39:10;7.80;;;3.20;;
2049;SDS011;8478;49.208;8.806;2022-12-24T02:41:44;6.87;;;3.40;;
2049;SDS011;8478;49.208;8.806;2022-12-24T02:44:37;5.40;;;3.10;;
2049;SDS011;8478;49.208;8.806;2022-12-24T02:47:07;5.20;;;3.40;;
2049;SDS011;8478;49.208;8.806;2022-12-24T02:49:35;10.77;;;3.90;;
2049;SDS011;8478;49.208;8.806;2022-12-24T02:52:01;5.90;;;3.47;;
2049;SDS011;8478;49.208;8.806;2022-12-24T02:54:27;9.00;;;3.20;;
2049;SDS011;8478;49.208;8.806;2022-12-24T03:00:12;4.40;;;3.53;;
2049;SDS011;8478;49.208;8.806;2022-12-24T03:13:19;6.33;;;2.93;;
2049;SDS011;8478;49.208;8.806;2022-12-24T03:15:46;7.33;;;3.90;;
2049;SDS011;8478;49.208;8.806;2022-12-24T03:18:15;9.30;;;3.50;;
2049;SDS011;8478;49.208;8.806;2022-12-24T03:21:05;7.43;;;3.17;;
2049;SDS011;8478;49.208;8.806;2022-12-24T03:23:42;6.03;;;2.83;;
2049;SDS011;8478;49.208;8.806;2022-12-24T03:26:08;6.63;;;3.20;;
2049;SDS011;8478;49.208;8.806;2022-12-24T03:28:37;8.73;;;3.20;;
2049;SDS011;8478;49.208;8.806;2022-12-24T03:31:05;5.57;;;3.10;;
2049;SDS011;8478;49.208;8.806;2022-12-24T03:33:31;5.13;;;2.73;;
2049;SDS011;8478;49.208;8.806;2022-12-24T03:35:57;5.10;;;3.20;;
2049;SDS011;8478;49.208;8.806;2022-12-24T03:38:22;7.33;;;3.40;;
2049;SDS011;8478;49.208;8.806;2022-12-24T03:40:48;11.43;;;4.17;;
2049;SDS011;8478;49.208;8.806;2022-12-24T03:43:14;5.87;;;3.80;;
2049;SDS011;8478;49.208;8.806;2022-12-24T03:45:39;5.77;;;3.10;;
2049;SDS011;8478;49.208;8.806;2022-12-24T03:48:05;5.40;;;3.30;;
2049;SDS011;8478;49.208;8.806;2022-12-24T03:50:31;5.57;;;2.97;;
2049;SDS011;8478;49.208;8.806;2022-12-24T03:52:57;7.30;;;3.43;;
2049;SDS011;8478;49.208;8.806;2022-12-24T03:55:22;6.50;;;3.37;;
2049;SDS011;8478;49.208;8.806;2022-12-24T03:57:48;5.73;;;3.23;;
2049;SDS011;8478;49.208;8.806;2022-12-24T04:00:14;8.07;;;4.00;;
2049;SDS011;8478;49.208;8.806;2022-12-24T04:02:40;5.80;;;3.57;;
2049;SDS011;8478;49.208;8.806;2022-12-24T04:05:06;7.57;;;3.30;;
2049;SDS011;8478;49.208;8.806;2022-12-24T04:07:32;6.23;;;3.30;;
2049;SDS011;8478;49.208;8.806;2022-12-24T04:09:58;8.90;;;4.00;;
2049;SDS011;8478;49.208;8.806;2022-12-24T04:12:23;8.33;;;4.00;;
2049;SDS011;8478;49.208;8.806;2022-12-24T04:14:49;8.47;;;4.20;;
2049;SDS011;8478;49.208;8.806;2022-12-24T04:17:15;8.73;;;3.77;;
2049;SDS011;8478;49.208;8.806;2022-12-24T04:19:41;7.80;;;4.97;;
2049;SDS011;8478;49.208;8.806;2022-12-24T04:22:07;8.33;;;4.13;;
2049;SDS011;8478;49.208;8.806;2022-12-24T04:24:33;7.53;;;3.50;;
2049;SDS011;8478;49.208;8.806;2022-12-24T04:26:59;6.53;;;3.83;;
2049;SDS011;8478;49.208;8.806;2022-12-24T04:29:24;12.03;;;4.70;;
2049;SDS011;8478;49.208;8.806;2022-12-24T04:31:50;8.70;;;4.13;;
2049;SDS011;8478;49.208;8.806;2022-12-24T04:34:16;11.90;;;4.40;;
2049;SDS011;8478;49.208;8.806;2022-12-24T04:36:41;7.47;;;3.57;;
2049;SDS011;8478;49.208;8.806;2022-12-24T04:39:07;9.60;;;4.20;;
2049;SDS011;8478;49.208;8.806;2022-12-24T04:41:32;7.73;;;3.77;;
2049;SDS011;8478;49.208;8.806;2022-12-24T04:43:58;5.60;;;4.10;;
2049;SDS011;8478;49.208;8.806;2022-12-24T04:46:25;8.87;;;3.90;;
2049;SDS011;8478;49.208;8.806;2022-12-24T04:48:55;6.93;;;4.00;;
2049;SDS011;8478;49.208;8.806;2022-12-24T04:51:21;8.53;;;3.43;;
2049;SDS011;8478;49.208;8.806;2022-12-24T04:53:48;6.70;;;4.37;;
2049;SDS011;8478;49.208;8.806;2022-12-24T04:56:15;5.37;;;3.30;;
2049;SDS011;8478;49.208;8.806;2022-12-24T04:58:43;9.07;;;4.47;;
2049;SDS011;8478;49.208;8.806;2022-12-24T05:01:13;7.30;;;3.63;;
2049;SDS011;8478;49.208;8.806;2022-12-24T05:03:41;6.30;;;4.13;;
2049;SDS011;8478;49.208;8.806;2022-12-24T05:06:09;6.60;;;3.80;;
2049;SDS011;8478;49.208;8.806;2022-12-24T05:08:36;6.13;;;3.90;;
2049;SDS011;8478;49.208;8.806;2022-12-24T05:11:02;9.00;;;3.70;;
2049;SDS011;8478;49.208;8.806;2022-12-24T05:13:29;5.70;;;3.40;;
2049;SDS011;8478;49.208;8.806;2022-12-24T05:15:55;5.83;;;3.67;;
2049;SDS011;8478;49.208;8.806;2022-12-24T05:18:21;6.13;;;3.83;;
2049;SDS011;8478;49.208;8.806;2022-12-24T05:20:47;6.43;;;3.63;;
2049;SDS011;8478;49.208;8.806;2022-12-24T05:23:17;6.80;;;4.40;;
2049;SDS011;8478;49.208;8.806;2022-12-24T05:26:03;10.80;;;4.47;;
2049;SDS011;8478;49.208;8.806;2022-12-24T05:28:47;9.87;;;3.60;;
2049;SDS011;8478;49.208;8.806;2022-12-24T05:31:20;12.60;;;4.70;;
2049;SDS011;8478;49.208;8.806;2022-12-24T05:33:47;6.10;;;3.70;;
2049;SDS011;8478;49.208;8.806;2022-12-24T05:36:13;11.37;;;4.40;;
2049;SDS011;8478;49.208;8.806;2022-12-24T05:38:39;9.40;;;4.30;;
2049;SDS011;8478;49.208;8.806;2022-12-24T05:41:05;8.47;;;4.83;;
2049;SDS011;8478;49.208;8.806;2022-12-24T05:43:33;8.13;;;4.50;;
2049;SDS011;8478;49.208;8.806;2022-12-24T05:46:00;9.13;;;4.23;;
2049;SDS011;8478;49.208;8.806;2022-12-24T05:48:27;8.37;;;4.20;;
2049;SDS011;8478;49.208;8.806;2022-12-24T05:50:54;9.93;;;4.03;;
2049;SDS011;8478;49.208;8.806;2022-12-24T05:53:20;9.63;;;4.50;;
2049;SDS011;8478;49.208;8.806;2022-12-24T05:55:46;15.27;;;5.47;;
2049;SDS011;8478;49.208;8.806;2022-12-24T05:58:12;9.33;;;4.30;;
2049;SDS011;8478;49.208;8.806;2022-12-24T06:00:38;7.67;;;4.30;;
2049;SDS011;8478;49.208;8.806;2022-12-24T06:03:04;5.53;;;3.97;;
2049;SDS011;8478;49.208;8.806;2022-12-24T06:05:29;8.50;;;4.50;;
2049;SDS011;8478;49.208;8.806;2022-12-24T06:07:55;11.27;;;4.50;;
2049;SDS011;8478;49.208;8.806;2022-12-24T06:10:21;8.10;;;4.50;;
2049;SDS011;8478;49.208;8.806;2022-12-24T06:12:47;9.07;;;3.63;;
2049;SDS011;8478;49.208;8.806;2022-12-24T06:15:13;4.80;;;3.63;;
2049;SDS011;8478;49.208;8.806;2022-12-24T06:17:39;6.87;;;4.10;;
2049;SDS011;8478;49.208;8.806;2022-12-24T06:20:05;6.03;;;3.63;;
2049;SDS011;8478;49.208;8.806;2022-12-24T06:22:31;9.27;;;4.63;;
2049;SDS011;8478;49.208;8.806;2022-12-24T06:24:57;12.17;;;4.27;;
2049;SDS011;8478;49.208;8.806;2022-12-24T06:27:22;8.47;;;4.33;;
2049;SDS011;8478;49.208;8.806;2022-12-24T06:29:48;8.13;;;4.40;;
2049;SDS011;8478;49.208;8.806;2022-12-24T06:32:14;9.57;;;4.10;;
2049;SDS011;8478;49.208;8.806;2022-12-24T06:34:39;8.50;;;5.20;;
2049;SDS011;8478;49.208;8.806;2022-12-24T06:37:05;6.10;;;4.40;;
2049;SDS011;8478;49.208;8.806;2022-12-24T06:39:31;7.47;;;4.07;;
2049;SDS011;8478;49.208;8.806;2022-12-24T06:41:56;7.80;;;4.53;;
2049;SDS011;8478;49.208;8.806;2022-12-24T06:44:22;7.13;;;4.27;;
2049;SDS011;8478;49.208;8.806;2022-12-24T06:46:48;7.60;;;4.17;;
2049;SDS011;8478;49.208;8.806;2022-12-24T06:49:13;9.73;;;4.67;;
2049;SDS011;8478;49.208;8.806;2022-12-24T06:51:39;13.40;;;4.23;;
2049;SDS011;8478;49.208;8.806;2022-12-24T06:54:05;6.27;;;3.80;;
2049;SDS011;8478;49.208;8.806;2022-12-24T06:56:31;12.20;;;5.10;;
2049;SDS011;8478;49.208;8.806;2022-12-24T06:58:57;12.17;;;5.17;;
2049;SDS011;8478;49.208;8.806;2022-12-24T07:01:22;7.57;;;4.20;;
2049;SDS011;8478;49.208;8.806;2022-12-24T07:03:48;10.90;;;5.03;;
2049;SDS011;8478;49.208;8.806;2022-12-24T07:06:23;11.43;;;4.13;;
2049;SDS011;8478;49.208;8.806;2022-12-24T07:08:50;12.17;;;5.30;;
2049;SDS011;8478;49.208;8.806;2022-12-24T07:11:16;10.00;;;4.60;;
2049;SDS011;8478;49.208;8.806;2022-12-24T07:13:42;7.50;;;4.03;;
2049;SDS011;8478;49.208;8.806;2022-12-24T07:16:08;7.57;;;4.00;;
2049;SDS011;8478;49.208;8.806;2022-12-24T07:18:34;9.73;;;4.77;;
2049;SDS011;8478;49.208;8.806;2022-12-24T07:21:01;8.77;;;4.63;;
2049;SDS011;8478;49.208;8.806;2022-12-24T07:23:28;12.00;;;5.37;;
2049;SDS011;8478;49.208;8.806;2022-12-24T07:25:58;8.97;;;4.97;;
2049;SDS011;8478;49.208;8.806;2022-12-24T07:28:27;8.87;;;4.70;;
2049;SDS011;8478;49.208;8.806;2022-12-24T07:30:57;13.37;;;4.47;;
2049;SDS011;8478;49.208;8.806;2022-12-24T07:33:24;10.70;;;4.87;;
2049;SDS011;8478;49.208;8.806;2022-12-24T07:36:00;10.43;;;4.70;;
2049;SDS011;8478;49.208;8.806;2022-12-24T07:38:27;8.37;;;4.17;;
2049;SDS011;8478;49.208;8.806;2022-12-24T07:40:54;8.33;;;3.90;;
2049;SDS011;8478;49.208;8.806;2022-12-24T07:43:20;11.73;;;5.23;;
2049;SDS011;8478;49.208;8.806;2022-12-24T07:45:45;11.47;;;4.40;;
2049;SDS011;8478;49.208;8.806;2022-12-24T07:48:11;9.83;;;4.37;;
2049;SDS011;8478;49.208;8.806;2022-12-24T07:50:37;11.73;;;5.13;;
2049;SDS011;8478;49.208;8.806;2022-12-24T07:53:02;11.03;;;4.43;;
2049;SDS011;8478;49.208;8.806;2022-12-24T07:55:28;12.30;;;4.73;;
2049;SDS011;8478;49.208;8.806;2022-12-24T07:57:54;9.27;;;4.43;;
2049;SDS011;8478;49.208;8.806;2022-12-24T08:00:19;11.90;;;4.37;;
2049;SDS011;8478;49.208;8.806;2022-12-24T08:02:45;11.80;;;4.87;;
2049;SDS011;8478;49.208;8.806;2022-12-24T08:05:11;10.83;;;4.43;;
2049;SDS011;8478;49.208;8.806;2022-12-24T08:07:36;10.30;;;4.50;;
2049;SDS011;8478;49.208;8.806;2022-12-24T08:10:02;9.67;;;5.00;;
2049;SDS011;8478;49.208;8.806;2022-12-24T08:12:28;8.17;;;4.33;;
2049;SDS011;8478;49.208;8.806;2022-12-24T08:14:54;5.70;;;3.93;;
2049;SDS011;8478;49.208;8.806;2022-12-24T08:17:19;10.77;;;5.00;;
2049;SDS011;8478;49.208;8.806;2022-12-24T08:19:45;8.93;;;4.73;;
2049;SDS011;8478;49.208;8.806;2022-12-24T08:22:11;8.47;;;4.67;;
2049;SDS011;8478;49.208;8.806;2022-12-24T08:24:36;8.97;;;4.90;;
2049;SDS011;8478;49.208;8.806;2022-12-24T08:27:02;7.47;;;4.77;;
2049;SDS011;8478;49.208;8.806;2022-12-24T08:29:27;8.80;;;4.23;;
2049;SDS011;8478;49.208;8.806;2022-12-24T08:31:53;12.40;;;4.87;;
2049;SDS011;8478;49.208;8.806;2022-12-24T08:34:19;16.33;;;5.23;;
2049;SDS011;8478;49.208;8.806;2022-12-24T08:36:44;8.00;;;4.13;;
2049;SDS011;8478;49.208;8.806;2022-12-24T08:39:10;7.27;;;4.40;;
2049;SDS011;8478;49.208;8.806;2022-12-24T08:41:37;11.37;;;4.30;;
2049;SDS011;8478;49.208;8.806;2022-12-24T08:44:02;10.67;;;4.63;;
2049;SDS011;8478;49.208;8.806;2022-12-24T08:46:28;9.50;;;4.30;;
2049;SDS011;8478;49.208;8.806;2022-12-24T08:48:54;10.53;;;4.80;;
2049;SDS011;8478;49.208;8.806;2022-12-24T08:51:19;10.50;;;5.10;;
2049;SDS011;8478;49.208;8.806;2022-12-24T08:53:45;9.27;;;4.80;;
2049;SDS011;8478;49.208;8.806;2022-12-24T08:56:11;12.47;;;5.03;;
2049;SDS011;8478;49.208;8.806;2022-12-24T08:58:37;8.20;;;4.97;;
2049;SDS011;8478;49.208;8.806;2022-12-24T09:01:10;11.53;;;4.87;;
2049;SDS011;8478;49.208;8.806;2022-12-24T09:03:40;9.93;;;4.53;;
2049;SDS011;8478;49.208;8.806;2022-12-24T09:06:06;12.00;;;4.70;;
2049;SDS011;8478;49.208;8.806;2022-12-24T09:08:33;11.83;;;5.20;;
2049;SDS011;8478;49.208;8.806;2022-12-24T09:11:03;14.23;;;5.87;;
2049;SDS011;8478;49.208;8.806;2022-12-24T09:13:47;7.73;;;4.30;;
2049;SDS011;8478;49.208;8.806;2022-12-24T09:16:13;11.97;;;5.07;;
2049;SDS011;8478;49.208;8.806;2022-12-24T09:18:39;14.17;;;5.23;;
2049;SDS011;8478;49.208;8.806;2022-12-24T09:21:06;8.60;;;4.67;;
2049;SDS011;8478;49.208;8.806;2022-12-24T09:23:34;9.30;;;4.90;;
2049;SDS011;8478;49.208;8.806;2022-12-24T09:26:03;10.00;;;4.50;;
2049;SDS011;8478;49.208;8.806;2022-12-24T09:28:30;10.70;;;5.30;;
2049;SDS011;8478;49.208;8.806;2022-12-24T09:31:00;11.20;;;5.43;;
2049;SDS011;8478;49.208;8.806;2022-12-24T09:33:27;9.60;;;4.80;;
2049;SDS011;8478;49.208;8.806;2022-12-24T09:35:55;10.07;;;4.33;;
2049;SDS011;8478;49.208;8.806;2022-12-24T09:38:21;6.33;;;4.50;;
2049;SDS011;8478;49.208;8.806;2022-12-24T09:40:47;9.90;;;4.40;;
2049;SDS011;8478;49.208;8.806;2022-12-24T09:43:14;8.40;;;5.10;;
2049;SDS011;8478;49.208;8.806;2022-12-24T09:45:47;9.37;;;5.00;;
2049;SDS011;8478;49.208;8.806;2022-12-24T09:48:29;7.27;;;4.50;;
2049;SDS011;8478;49.208;8.806;2022-12-24T09:50:58;7.63;;;4.60;;
2049;SDS011;8478;49.208;8.806;2022-12-24T09:56:29;12.40;;;5.03;;
2049;SDS011;8478;49.208;8.806;2022-12-24T09:58:59;8.40;;;4.70;;
2049;SDS011;8478;49.208;8.806;2022-12-24T10:01:30;10.80;;;4.50;;
2049;SDS011;8478;49.208;8.806;2022-12-24T10:03:57;7.90;;;4.43;;
2049;SDS011;8478;49.208;8.806;2022-12-24T10:06:29;10.87;;;4.93;;
2049;SDS011;8478;49.208;8.806;2022-12-24T10:17:45;10.83;;;5.17;;
2049;SDS011;8478;49.208;8.806;2022-12-24T10:31:32;7.73;;;4.53;;
2049;SDS011;8478;49.208;8.806;2022-12-24T10:34:01;11.60;;;5.07;;
2049;SDS011;8478;49.208;8.806;2022-12-24T10:36:35;16.63;;;5.13;;
2049;SDS011;8478;49.208;8.806;2022-12-24T10:39:00;9.90;;;4.27;;
2049;SDS011;8478;49.208;8.806;2022-12-24T10:41:26;8.17;;;4.70;;
2049;SDS011;8478;49.208;8.806;2022-12-24T10:43:53;6.57;;;4.33;;
2049;SDS011;8478;49.208;8.806;2022-12-24T10:46:21;9.90;;;5.03;;
2049;SDS011;8478;49.208;8.806;2022-12-24T10:48:54;11.97;;;4.77;;
2049;SDS011;8478;49.208;8.806;2022-12-24T10:54:19;9.80;;;4.43;;
2049;SDS011;8478;49.208;8.806;2022-12-24T10:56:50;15.00;;;4.83;;
2049;SDS011;8478;49.208;8.806;2022-12-24T10:59:21;7.40;;;3.70;;
2049;SDS011;8478;49.208;8.806;2022-12-24T11:02:23;5.80;;;4.27;;
2049;SDS011;8478;49.208;8.806;2022-12-24T11:04:51;7.97;;;4.77;;
2049;SDS011;8478;49.208;8.806;2022-12-24T11:07:19;8.20;;;4.30;;
2049;SDS011;8478;49.208;8.806;2022-12-24T11:09:53;8.70;;;4.80;;
2049;SDS011;8478;49.208;8.806;2022-12-24T11:12:28;8.60;;;4.40;;
2049;SDS011;8478;49.208;8.806;2022-12-24T11:15:21;8.43;;;4.03;;
2049;SDS011;8478;49.208;8.806;2022-12-24T11:17:55;7.17;;;3.87;;
2049;SDS011;8478;49.208;8.806;2022-12-24T11:20:30;8.77;;;4.60;;
2049;SDS011;8478;49.208;8.806;2022-12-24T11:22:58;12.40;;;5.30;;
2049;SDS011;8478;49.208;8.806;2022-12-24T11:25:25;11.60;;;3.70;;
2049;SDS011;8478;49.208;8.806;2022-12-24T11:27:53;12.37;;;4.77;;
2049;SDS011;8478;49.208;8.806;2022-12-24T11:30:24;8.63;;;4.40;;
2049;SDS011;8478;49.208;8.806;2022-12-24T11:35:24;7.40;;;3.80;;
2049;SDS011;8478;49.208;8.806;2022-12-24T11:40:27;7.40;;;4.33;;
2049;SDS011;8478;49.208;8.806;2022-12-24T11:43:06;7.57;;;3.60;;
2049;SDS011;8478;49.208;8.806;2022-12-24T11:45:37;10.30;;;4.67;;
2049;SDS011;8478;49.208;8.806;2022-12-24T11:48:21;10.27;;;4.20;;
2049;SDS011;8478;49.208;8.806;2022-12-24T11:50:54;7.73;;;3.90;;
2049;SDS011;8478;49.208;8.806;2022-12-24T11:53:40;10.50;;;3.93;;
2049;SDS011;8478;49.208;8.806;2022-12-24T11:56:31;8.77;;;5.03;;
2049;SDS011;8478;49.208;8.806;2022-12-24T12:04:51;8.87;;;4.40;;
2049;SDS011;8478;49.208;8.806;2022-12-24T12:07:26;12.47;;;4.60;;
2049;SDS011;8478;49.208;8.806;2022-12-24T12:10:14;11.97;;;5.07;;
2049;SDS011;8478;49.208;8.806;2022-12-24T12:12:41;14.07;;;5.63;;
2049;SDS011;8478;49.208;8.806;2022-12-24T12:15:27;8.83;;;4.47;;
2049;SDS011;8478;49.208;8.806;2022-12-24T12:18:08;9.43;;;4.60;;
2049;SDS011;8478;49.208;8.806;2022-12-24T12:20:42;7.67;;;4.67;;
2049;SDS011;8478;49.208;8.806;2022-12-24T12:26:03;8.83;;;4.47;;
2049;SDS011;8478;49.208;8.806;2022-12-24T12:28:40;10.87;;;4.10;;
2049;SDS011;8478;49.208;8.806;2022-12-24T12:31:55;10.10;;;5.20;;
2049;SDS011;8478;49.208;8.806;2022-12-24T12:34:04;8.50;;;4.50;;
2049;SDS011;8478;49.208;8.806;2022-12-24T12:37:02;20.40;;;5.23;;
2049;SDS011;8478;49.208;8.806;2022-12-24T12:39:37;7.37;;;5.30;;
2049;SDS011;8478;49.208;8.806;2022-12-24T12:42:10;10.90;;;5.27;;
2049;SDS011;8478;49.208;8.806;2022-12-24T12:58:35;9.13;;;4.50;;
2049;SDS011;8478;49.208;8.806;2022-12-24T13:12:40;12.07;;;6.30;;
2049;SDS011;8478;49.208;8.806;2022-12-24T13:18:58;12.77;;;4.60;;
2049;SDS011;8478;49.208;8.806;2022-12-24T13:21:37;13.40;;;5.00;;
2049;SDS011;8478;49.208;8.806;2022-12-24T13:24:15;10.97;;;4.70;;
2049;SDS011;8478;49.208;8.806;2022-12-24T13:34:51;8.90;;;4.83;;
2049;SDS011;8478;49.208;8.806;2022-12-24T13:37:38;8.70;;;5.10;;
2049;SDS011;8478;49.208;8.806;2022-12-24T13:53:03;11.80;;;4.90;;
2049;SDS011;8478;49.208;8.806;2022-12-24T13:55:48;7.50;;;4.13;;
2049;SDS011;8478;49.208;8.806;2022-12-24T13:58:23;13.43;;;4.83;;
2049;SDS011;8478;49.208;8.806;2022-12-24T14:00:51;5.50;;;3.93;;
2049;SDS011;8478;49.208;8.806;2022-12-24T14:08:56;9.50;;;4.57;;
2049;SDS011;8478;49.208;8.806;2022-12-24T14:14:28;9.40;;;3.90;;
2049;SDS011;8478;49.208;8.806;2022-12-24T14:17:00;9.27;;;4.30;;
2049;SDS011;8478;49.208;8.806;2022-12-24T14:19:43;5.77;;;4.80;;
2049;SDS011;8478;49.208;8.806;2022-12-24T14:22:18;9.10;;;5.00;;
2049;SDS011;8478;49.208;8.806;2022-12-24T14:24:55;9.00;;;4.60;;
2049;SDS011;8478;49.208;8.806;2022-12-24T14:27:42;8.90;;;4.37;;
2049;SDS011;8478;49.208;8.806;2022-12-24T14:32:40;10.70;;;4.20;;
2049;SDS011;8478;49.208;8.806;2022-12-24T14:37:33;10.27;;;4.10;;
2049;SDS011;8478;49.208;8.806;2022-12-24T14:39:59;7.80;;;4.27;;
2049;SDS011;8478;49.208;8.806;2022-12-24T14:56:13;9.30;;;4.80;;
2049;SDS011;8478;49.208;8.806;2022-12-24T14:58:41;11.03;;;4.90;;
2049;SDS011;8478;49.208;8.806;2022-12-24T15:01:19;13.37;;;5.27;;
2049;SDS011;8478;49.208;8.806;2022-12-24T15:06:34;7.63;;;4.40;;
2049;SDS011;8478;49.208;8.806;2022-12-24T15:09:27;10.63;;;4.67;;
2049;SDS011;8478;49.208;8.806;2022-12-24T15:11:55;5.77;;;4.60;;
2049;SDS011;8478;49.208;8.806;2022-12-24T15:14:24;10.33;;;4.10;;
2049;SDS011;8478;49.208;8.806;2022-12-24T15:16:53;8.93;;;4.50;;
2049;SDS011;8478;49.208;8.806;2022-12-24T15:19:38;9.13;;;5.03;;
2049;SDS011;8478;49.208;8.806;2022-12-24T15:22:08;7.57;;;4.30;;
2049;SDS011;8478;49.208;8.806;2022-12-24T15:24:44;9.30;;;4.43;;
2049;SDS011;8478;49.208;8.806;2022-12-24T15:27:13;7.83;;;4.30;;
2049;SDS011;8478;49.208;8.806;2022-12-24T15:29:44;8.80;;;3.57;;
2049;SDS011;8478;49.208;8.806;2022-12-24T15:32:15;5.53;;;4.00;;
2049;SDS011;8478;49.208;8.806;2022-12-24T15:34:43;11.27;;;3.93;;
2049;SDS011;8478;49.208;8.806;2022-12-24T15:37:28;9.77;;;3.93;;
2049;SDS011;8478;49.208;8.806;2022-12-24T15:42:32;9.57;;;4.20;;
2049;SDS011;8478;49.208;8.806;2022-12-24T15:45:32;10.40;;;4.30;;
2049;SDS011;8478;49.208;8.806;2022-12-24T15:47:57;8.10;;;3.90;;
2049;SDS011;8478;49.208;8.806;2022-12-24T15:52:55;6.97;;;4.10;;
2049;SDS011;8478;49.208;8.806;2022-12-24T15:55:46;9.13;;;4.30;;
2049;SDS011;8478;49.208;8.806;2022-12-24T15:58:34;9.97;;;4.57;;
2049;SDS011;8478;49.208;8.806;2022-12-24T16:03:34;5.40;;;3.30;;
2049;SDS011;8478;49.208;8.806;2022-12-24T16:06:04;7.10;;;4.00;;
2049;SDS011;8478;49.208;8.806;2022-12-24T16:08:33;6.37;;;3.40;;
2049;SDS011;8478;49.208;8.806;2022-12-24T16:14:12;5.83;;;3.83;;
2049;SDS011;8478;49.208;8.806;2022-12-24T16:16:41;7.73;;;4.43;;
2049;SDS011;8478;49.208;8.806;2022-12-24T16:19:15;6.60;;;4.00;;
2049;SDS011;8478;49.208;8.806;2022-12-24T16:21:42;9.67;;;4.30;;
2049;SDS011;8478;49.208;8.806;2022-12-24T16:26:45;7.50;;;3.70;;
2049;SDS011;8478;49.208;8.806;2022-12-24T16:29:12;11.27;;;3.80;;
2049;SDS011;8478;49.208;8.806;2022-12-24T16:31:42;7.23;;;3.77;;
2049;SDS011;8478;49.208;8.806;2022-12-24T16:34:28;5.70;;;4.17;;
2049;SDS011;8478;49.208;8.806;2022-12-24T16:36:56;6.53;;;4.10;;
2049;SDS011;8478;49.208;8.806;2022-12-24T16:41:56;7.17;;;4.07;;
2049;SDS011;8478;49.208;8.806;2022-12-24T16:44:42;6.80;;;3.90;;
2049;SDS011;8478;49.208;8.806;2022-12-24T16:47:09;6.47;;;4.00;;
2049;SDS011;8478;49.208;8.806;2022-12-24T16:49:43;4.60;;;3.70;;
2049;SDS011;8478;49.208;8.806;2022-12-24T16:52:16;6.57;;;3.83;;
2049;SDS011;8478;49.208;8.806;2022-12-24T16:54:46;7.60;;;4.00;;
2049;SDS011;8478;49.208;8.806;2022-12-24T16:57:12;8.50;;;3.53;;
2049;SDS011;8478;49.208;8.806;2022-12-24T16:59:38;7.83;;;3.93;;
2049;SDS011;8478;49.208;8.806;2022-12-24T17:02:04;7.93;;;3.70;;
2049;SDS011;8478;49.208;8.806;2022-12-24T17:04:31;6.10;;;4.87;;
2049;SDS011;8478;49.208;8.806;2022-12-24T17:06:57;8.67;;;5.50;;
2049;SDS011;8478;49.208;8.806;2022-12-24T17:09:23;6.47;;;4.90;;
2049;SDS011;8478;49.208;8.806;2022-12-24T17:11:49;8.43;;;5.33;;
2049;SDS011;8478;49.208;8.806;2022-12-24T17:14:14;7.17;;;4.60;;
2049;SDS011;8478;49.208;8.806;2022-12-24T17:16:40;6.37;;;4.50;;
2049;SDS011;8478;49.208;8.806;2022-12-24T17:19:06;5.17;;;4.50;;
2049;SDS011;8478;49.208;8.806;2022-12-24T17:21:32;6.67;;;4.70;;
2049;SDS011;8478;49.208;8.806;2022-12-24T17:23:58;7.53;;;5.20;;
2049;SDS011;8478;49.208;8.806;2022-12-24T17:26:24;8.00;;;4.60;;
2049;SDS011;8478;49.208;8.806;2022-12-24T17:28:53;7.97;;;4.67;;
2049;SDS011;8478;49.208;8.806;2022-12-24T17:31:20;5.90;;;4.60;;
2049;SDS011;8478;49.208;8.806;2022-12-24T17:33:47;5.03;;;4.37;;
2049;SDS011;8478;49.208;8.806;2022-12-24T17:36:14;4.57;;;4.17;;
2049;SDS011;8478;49.208;8.806;2022-12-24T17:38:40;6.63;;;4.30;;
2049;SDS011;8478;49.208;8.806;2022-12-24T17:41:09;6.30;;;4.90;;
2049;SDS011;8478;49.208;8.806;2022-12-24T17:43:36;6.03;;;5.00;;
2049;SDS011;8478;49.208;8.806;2022-12-24T17:46:05;7.93;;;4.73;;
2049;SDS011;8478;49.208;8.806;2022-12-24T17:48:32;6.43;;;4.00;;
2049;SDS011;8478;49.208;8.806;2022-12-24T17:51:02;7.37;;;4.10;;
2049;SDS011;8478;49.208;8.806;2022-12-24T17:53:29;5.40;;;3.83;;
2049;SDS011;8478;49.208;8.806;2022-12-24T17:55:57;4.37;;;3.97;;
2049;SDS011;8478;49.208;8.806;2022-12-24T17:58:23;5.70;;;3.97;;
2049;SDS011;8478;49.208;8.806;2022-12-24T18:00:48;5.67;;;4.40;;
2049;SDS011;8478;49.208;8.806;2022-12-24T18:03:15;7.77;;;4.43;;
2049;SDS011;8478;49.208;8.806;2022-12-24T18:05:40;8.80;;;5.47;;
2049;SDS011;8478;49.208;8.806;2022-12-24T18:08:06;6.10;;;4.90;;